createdAt,value
2019-02-24T00:00:02.898Z,-3.90
2019-02-24T00:02:35.944Z,-3.80
2019-02-24T00:05:08.905Z,-3.70
2019-02-24T00:07:41.925Z,-3.70
2019-02-24T00:10:14.825Z,-3.60
2019-02-24T00:12:47.765Z,-3.70
2019-02-24T00:15:20.604Z,-3.90
2019-02-24T00:17:53.664Z,-3.80
2019-02-24T00:20:26.687Z,-3.40
2019-02-24T00:22:59.586Z,-3.30
2019-02-24T00:25:32.589Z,-3.40
2019-02-24T00:28:07.303Z,-3.50
2019-02-24T00:30:40.425Z,-3.10
2019-02-24T00:33:14.024Z,-3.00
2019-02-24T00:35:47.105Z,-2.90
2019-02-24T00:38:20.952Z,-3.00
2019-02-24T00:40:53.929Z,-2.80
2019-02-24T00:43:27.126Z,-2.90
2019-02-24T00:46:00.584Z,-2.80
2019-02-24T00:48:33.504Z,-2.80
2019-02-24T00:51:06.745Z,-2.90
2019-02-24T00:53:39.965Z,-3.00
2019-02-24T00:56:13.165Z,-3.40
2019-02-24T00:58:47.826Z,-4.00
2019-02-24T01:01:20.905Z,-4.30
2019-02-24T01:03:54.224Z,-4.20
2019-02-24T01:06:27.604Z,-4.20
2019-02-24T01:09:00.568Z,-4.40
2019-02-24T01:11:33.504Z,-4.40
2019-02-24T01:14:06.545Z,-4.40
2019-02-24T01:16:39.465Z,-4.40
2019-02-24T01:19:12.545Z,-4.40
2019-02-24T01:21:45.444Z,-4.40
2019-02-24T01:24:18.550Z,-4.60
2019-02-24T01:26:51.367Z,-4.50
2019-02-24T01:29:24.367Z,-4.20
2019-02-24T01:31:57.664Z,-4.30
2019-02-24T01:34:30.645Z,-4.10
2019-02-24T01:37:03.467Z,-3.60
2019-02-24T01:39:36.365Z,-3.60
2019-02-24T01:42:09.428Z,-3.40
2019-02-24T01:44:42.505Z,-3.40
2019-02-24T01:47:15.946Z,-3.50
2019-02-24T01:49:48.947Z,-3.80
2019-02-24T01:52:21.863Z,-4.10
2019-02-24T01:54:54.765Z,-4.50
2019-02-24T01:57:28.025Z,-4.50
2019-02-24T02:00:01.143Z,-4.50
2019-02-24T02:02:34.106Z,-4.50
2019-02-24T02:05:07.124Z,-4.30
2019-02-24T02:07:39.944Z,-4.20
2019-02-24T02:10:12.885Z,-4.10
2019-02-24T02:12:46.045Z,-4.40
2019-02-24T02:15:19.463Z,-4.40
2019-02-24T02:17:52.383Z,-4.50
2019-02-24T02:20:25.603Z,-4.30
2019-02-24T02:22:58.724Z,-4.20
2019-02-24T02:25:31.985Z,-4.10
2019-02-24T02:28:04.943Z,-4.00
2019-02-24T02:30:38.006Z,-3.90
2019-02-24T02:33:11.152Z,-4.10
2019-02-24T02:35:44.326Z,-4.40
2019-02-24T02:38:17.264Z,-4.50
2019-02-24T02:40:50.568Z,-4.60
2019-02-24T02:43:23.526Z,-4.50
2019-02-24T02:45:56.443Z,-4.70
2019-02-24T02:48:29.504Z,-4.80
2019-02-24T02:51:02.550Z,-4.80
2019-02-24T02:53:35.646Z,-4.60
2019-02-24T02:56:08.647Z,-4.60
2019-02-24T02:58:41.545Z,-4.70
2019-02-24T03:01:14.605Z,-4.80
2019-02-24T03:03:47.585Z,-4.90
2019-02-24T03:06:22.147Z,-4.90
2019-02-24T03:08:54.925Z,-4.90
2019-02-24T03:11:28.606Z,-5.00
2019-02-24T03:14:01.399Z,-5.00
2019-02-24T03:16:34.305Z,-5.10
2019-02-24T03:19:07.426Z,-5.00
2019-02-24T03:21:40.374Z,-5.00
2019-02-24T03:24:13.785Z,-5.10
2019-02-24T03:26:47.105Z,-5.10
2019-02-24T03:29:20.105Z,-5.10
2019-02-24T03:31:53.080Z,-5.00
2019-02-24T03:34:25.988Z,-5.00
2019-02-24T03:36:58.945Z,-5.00
2019-02-24T03:39:31.825Z,-5.00
2019-02-24T03:42:04.667Z,-5.00
2019-02-24T03:44:37.864Z,-5.00
2019-02-24T03:47:11.067Z,-4.80
2019-02-24T03:49:44.323Z,-4.90
2019-02-24T03:52:17.644Z,-4.70
2019-02-24T03:54:50.725Z,-4.80
2019-02-24T03:57:23.764Z,-4.50
2019-02-24T03:59:56.964Z,-4.10
2019-02-24T04:02:30.065Z,-3.90
2019-02-24T04:05:02.794Z,-3.90
2019-02-24T04:07:35.788Z,-3.90
2019-02-24T04:10:09.003Z,-3.70
2019-02-24T04:12:41.905Z,-3.80
2019-02-24T04:15:15.343Z,-3.80
2019-02-24T04:17:48.224Z,-3.80
2019-02-24T04:20:21.105Z,-4.00
2019-02-24T04:22:54.183Z,-4.60
2019-02-24T04:25:27.072Z,-4.60
2019-02-24T04:27:59.883Z,-4.30
2019-02-24T04:30:33.166Z,-4.20
2019-02-24T04:33:06.417Z,-4.10
2019-02-24T04:35:39.265Z,-4.30
2019-02-24T04:38:12.224Z,-4.30
2019-02-24T04:40:45.745Z,-4.40
2019-02-24T04:43:18.784Z,-4.60
2019-02-24T04:45:51.725Z,-4.40
2019-02-24T04:48:24.605Z,-4.50
2019-02-24T04:50:57.526Z,-4.80
2019-02-24T04:53:30.525Z,-4.90
2019-02-24T04:56:03.264Z,-4.80
2019-02-24T04:58:36.165Z,-4.90
2019-02-24T05:01:08.903Z,-4.90
2019-02-24T05:03:41.908Z,-4.80
2019-02-24T05:06:15.146Z,-4.50
2019-02-24T05:08:48.125Z,-4.60
2019-02-24T05:11:21.345Z,-4.40
2019-02-24T05:13:54.188Z,-4.50
2019-02-24T05:16:27.047Z,-4.80
2019-02-24T05:19:00.223Z,-4.90
2019-02-24T05:21:33.444Z,-4.80
2019-02-24T05:24:06.687Z,-4.80
2019-02-24T05:26:39.748Z,-4.90
2019-02-24T05:29:12.825Z,-5.00
2019-02-24T05:31:45.682Z,-5.00
2019-02-24T05:34:18.624Z,-4.90
2019-02-24T05:36:54.165Z,-4.90
2019-02-24T05:39:27.846Z,-4.80
2019-02-24T05:42:00.785Z,-4.90
2019-02-24T05:44:33.785Z,-4.70
2019-02-24T05:47:06.644Z,-4.90
2019-02-24T05:49:39.505Z,-4.90
2019-02-24T05:52:12.523Z,-4.60
2019-02-24T05:54:45.545Z,-4.60
2019-02-24T05:57:19.325Z,-4.80
2019-02-24T05:59:55.280Z,-5.00
2019-02-24T06:02:27.288Z,-4.80
2019-02-24T06:05:00.325Z,-4.70
2019-02-24T06:07:33.350Z,-4.60
2019-02-24T06:10:06.284Z,-4.30
2019-02-24T06:12:39.453Z,-4.30
2019-02-24T06:15:12.405Z,-4.10
2019-02-24T06:17:45.448Z,-4.30
2019-02-24T06:20:18.366Z,-4.00
2019-02-24T06:22:51.167Z,-3.80
2019-02-24T06:25:24.146Z,-3.70
2019-02-24T06:27:57.204Z,-3.70
2019-02-24T06:30:30.245Z,-3.80
2019-02-24T06:33:03.021Z,-4.10
2019-02-24T06:35:36.405Z,-3.80
2019-02-24T06:38:09.343Z,-4.10
2019-02-24T06:40:42.426Z,-4.10
2019-02-24T06:43:15.305Z,-3.90
2019-02-24T06:45:48.225Z,-3.90
2019-02-24T06:48:20.987Z,-3.80
2019-02-24T06:50:58.244Z,-3.70
2019-02-24T06:53:31.025Z,-3.80
2019-02-24T06:56:03.889Z,-3.60
2019-02-24T06:58:36.645Z,-3.40
2019-02-24T07:01:09.545Z,-3.20
2019-02-24T07:03:42.685Z,-3.50
2019-02-24T07:06:15.744Z,-3.40
2019-02-24T07:08:48.485Z,-3.30
2019-02-24T07:11:21.444Z,-3.10
2019-02-24T07:13:54.185Z,-3.10
2019-02-24T07:16:26.950Z,-3.00
2019-02-24T07:18:59.685Z,-2.80
2019-02-24T07:21:32.765Z,-2.70
2019-02-24T07:24:05.984Z,-2.70
2019-02-24T07:26:39.025Z,-2.70
2019-02-24T07:29:11.845Z,-2.70
2019-02-24T07:31:44.607Z,-2.60
2019-02-24T07:34:18.424Z,-2.50
2019-02-24T07:36:51.346Z,-2.40
2019-02-24T07:39:24.365Z,-2.50
2019-02-24T07:41:57.527Z,-2.40
2019-02-24T07:44:30.445Z,-2.40
2019-02-24T07:47:03.345Z,-2.40
2019-02-24T07:49:36.566Z,-2.70
2019-02-24T07:52:09.368Z,-2.70
2019-02-24T07:54:42.985Z,-2.60
2019-02-24T07:57:15.832Z,-2.30
2019-02-24T07:59:48.764Z,-2.10
2019-02-24T08:02:21.827Z,-2.00
2019-02-24T08:04:54.745Z,-1.70
2019-02-24T08:07:27.512Z,-1.70
2019-02-24T08:10:00.768Z,-1.80
2019-02-24T08:12:33.884Z,-1.70
2019-02-24T08:15:06.706Z,-1.70
2019-02-24T08:17:39.547Z,-1.70
2019-02-24T08:20:12.444Z,-1.70
2019-02-24T08:22:45.844Z,-1.50
2019-02-24T08:25:18.645Z,-1.30
2019-02-24T08:27:53.977Z,-1.10
2019-02-24T08:30:26.227Z,-1.20
2019-02-24T08:32:59.105Z,-1.00
2019-02-24T08:35:32.445Z,-1.00
2019-02-24T08:38:05.605Z,-0.80
2019-02-24T08:40:38.854Z,-1.00
2019-02-24T08:43:11.745Z,-1.10
2019-02-24T08:45:45.305Z,-1.10
2019-02-24T08:48:19.322Z,-1.00
2019-02-24T08:50:52.965Z,-1.00
2019-02-24T08:53:25.885Z,-0.90
2019-02-24T08:55:58.865Z,-1.10
2019-02-24T08:58:31.824Z,-1.00
2019-02-24T09:01:04.787Z,-0.90
2019-02-24T09:03:37.766Z,-1.00
2019-02-24T09:06:10.726Z,-0.90
2019-02-24T09:08:43.823Z,-0.70
2019-02-24T09:11:16.628Z,-0.60
2019-02-24T09:13:50.624Z,-0.50
2019-02-24T09:16:23.465Z,-0.40
2019-02-24T09:18:56.304Z,-0.30
2019-02-24T09:21:29.246Z,-0.30
2019-02-24T09:24:02.621Z,-0.40
2019-02-24T09:26:38.395Z,-0.30
2019-02-24T09:29:11.424Z,-0.40
2019-02-24T09:31:44.584Z,-0.30
2019-02-24T09:34:17.704Z,-0.20
2019-02-24T09:36:50.685Z,-0.10
2019-02-24T09:39:23.587Z,0.10
2019-02-24T09:41:56.403Z,0.20
2019-02-24T09:44:29.505Z,0.00
2019-02-24T09:47:02.521Z,0.00
2019-02-24T09:49:36.104Z,0.00
2019-02-24T09:52:08.965Z,0.10
2019-02-24T09:54:42.180Z,0.30
2019-02-24T09:57:15.108Z,0.20
2019-02-24T09:59:48.305Z,0.20
2019-02-24T10:02:21.065Z,0.20
2019-02-24T10:04:53.898Z,0.40
2019-02-24T10:07:26.696Z,0.60
2019-02-24T10:09:59.785Z,0.80
2019-02-24T10:12:32.707Z,0.80
2019-02-24T10:15:05.643Z,0.70
2019-02-24T10:17:38.388Z,0.90
2019-02-24T10:20:11.526Z,1.00
2019-02-24T10:22:44.384Z,1.20
2019-02-24T10:25:17.504Z,1.10
2019-02-24T10:27:50.305Z,1.10
2019-02-24T10:30:23.148Z,1.20
2019-02-24T10:32:58.405Z,1.30
2019-02-24T10:35:31.374Z,1.30
2019-02-24T10:38:04.123Z,1.40
2019-02-24T10:40:38.856Z,1.40
2019-02-24T10:43:11.965Z,1.40
2019-02-24T10:45:45.148Z,1.40
2019-02-24T10:48:18.050Z,1.30
2019-02-24T10:50:51.486Z,1.40
2019-02-24T10:53:24.265Z,1.40
2019-02-24T10:55:57.184Z,1.20
2019-02-24T10:58:34.745Z,1.30
2019-02-24T11:01:04.870Z,1.20
2019-02-24T11:03:37.685Z,1.30
2019-02-24T11:06:10.726Z,1.20
2019-02-24T11:08:43.749Z,1.10
2019-02-24T11:11:16.886Z,1.00
2019-02-24T11:13:49.604Z,1.20
2019-02-24T11:16:22.526Z,1.40
2019-02-24T11:18:55.547Z,1.50
2019-02-24T11:21:29.386Z,1.70
2019-02-24T11:24:02.358Z,1.60
2019-02-24T11:26:37.566Z,1.60
2019-02-24T11:29:10.704Z,1.70
2019-02-24T11:31:45.287Z,1.80
2019-02-24T11:34:18.325Z,1.70
2019-02-24T11:36:52.227Z,1.70
2019-02-24T11:39:25.025Z,1.70
2019-02-24T11:41:57.925Z,1.80
2019-02-24T11:44:31.264Z,1.80
2019-02-24T11:47:04.571Z,2.00
2019-02-24T11:49:37.726Z,2.00
2019-02-24T11:52:10.724Z,2.00
2019-02-24T11:54:43.625Z,2.00
2019-02-24T11:57:17.891Z,2.00
2019-02-24T11:59:50.846Z,1.90
2019-02-24T12:02:23.904Z,1.80
2019-02-24T12:04:56.785Z,2.00
2019-02-24T12:07:29.867Z,2.10
2019-02-24T12:10:02.791Z,2.30
2019-02-24T12:12:35.745Z,2.30
2019-02-24T12:15:09.225Z,2.40
2019-02-24T12:17:42.385Z,2.20
2019-02-24T12:20:15.365Z,2.30
2019-02-24T12:22:48.164Z,2.30
2019-02-24T12:25:21.245Z,2.40
2019-02-24T12:27:54.204Z,2.40
2019-02-24T12:30:29.193Z,2.40
2019-02-24T12:33:02.564Z,2.60
2019-02-24T12:35:36.025Z,2.50
2019-02-24T12:38:09.184Z,2.40
2019-02-24T12:40:42.125Z,2.40
2019-02-24T12:43:15.105Z,2.50
2019-02-24T12:45:48.306Z,2.70
2019-02-24T12:48:21.444Z,2.80
2019-02-24T12:50:54.574Z,2.70
2019-02-24T12:53:27.654Z,2.80
2019-02-24T12:56:00.524Z,2.90
2019-02-24T12:58:33.971Z,2.80
2019-02-24T13:01:06.791Z,2.70
2019-02-24T13:03:40.251Z,2.80
2019-02-24T13:06:13.251Z,2.80
2019-02-24T13:08:46.219Z,2.80
2019-02-24T13:11:19.371Z,2.90
2019-02-24T13:13:52.191Z,2.90
2019-02-24T13:16:25.371Z,3.00
2019-02-24T13:18:58.080Z,3.00
2019-02-24T13:21:30.780Z,3.10
2019-02-24T13:24:05.247Z,3.20
2019-02-24T13:26:38.187Z,3.10
2019-02-24T13:29:11.184Z,3.30
2019-02-24T13:31:44.046Z,3.80
2019-02-24T13:34:17.168Z,3.90
2019-02-24T13:36:50.045Z,3.90
2019-02-24T13:39:23.127Z,3.90
2019-02-24T13:41:55.965Z,3.70
2019-02-24T13:44:29.433Z,3.60
2019-02-24T13:47:02.403Z,3.60
2019-02-24T13:49:35.471Z,3.70
2019-02-24T13:52:08.487Z,3.70
2019-02-24T13:54:41.683Z,3.80
2019-02-24T13:57:14.824Z,3.90
2019-02-24T13:59:47.985Z,3.80
2019-02-24T14:02:24.107Z,3.90
2019-02-24T14:04:55.766Z,3.90
2019-02-24T14:07:28.704Z,3.90
2019-02-24T14:10:01.725Z,3.70
2019-02-24T14:12:34.624Z,3.80
2019-02-24T14:15:07.765Z,3.70
2019-02-24T14:17:40.584Z,3.60
2019-02-24T14:20:13.533Z,3.40
2019-02-24T14:22:46.532Z,3.50
2019-02-24T14:25:19.876Z,3.50
2019-02-24T14:27:53.085Z,3.40
2019-02-24T14:30:26.124Z,3.50
2019-02-24T14:32:59.293Z,3.60
2019-02-24T14:35:32.604Z,3.50
2019-02-24T14:38:05.625Z,3.40
2019-02-24T14:40:39.363Z,3.50
2019-02-24T14:43:12.943Z,3.40
2019-02-24T14:45:49.658Z,3.40
2019-02-24T14:48:21.523Z,3.30
2019-02-24T14:50:54.544Z,3.40
2019-02-24T14:53:27.485Z,3.30
2019-02-24T14:56:00.503Z,3.10
2019-02-24T14:58:33.423Z,3.30
2019-02-24T15:01:06.430Z,3.30
2019-02-24T15:03:39.748Z,3.30
2019-02-24T15:06:12.884Z,3.30
2019-02-24T15:08:47.786Z,3.30
2019-02-24T15:11:20.609Z,3.30
2019-02-24T15:13:53.909Z,3.20
2019-02-24T15:16:27.004Z,3.10
2019-02-24T15:19:00.008Z,3.10
2019-02-24T15:21:32.985Z,2.90
2019-02-24T15:24:05.965Z,3.00
2019-02-24T15:26:39.229Z,3.00
2019-02-24T15:29:12.169Z,2.90
2019-02-24T15:31:46.735Z,2.90
2019-02-24T15:34:20.025Z,3.00
2019-02-24T15:36:55.124Z,3.00
2019-02-24T15:39:28.044Z,2.90
2019-02-24T15:42:00.945Z,2.90
2019-02-24T15:44:34.225Z,2.90
2019-02-24T15:47:07.424Z,3.00
2019-02-24T15:49:40.284Z,2.90
2019-02-24T15:52:13.353Z,2.80
2019-02-24T15:54:46.385Z,2.60
2019-02-24T15:57:19.813Z,2.70
2019-02-24T15:59:52.825Z,2.70
2019-02-24T16:02:26.025Z,2.70
2019-02-24T16:04:58.845Z,2.60
2019-02-24T16:07:34.205Z,2.60
2019-02-24T16:10:07.124Z,2.60
2019-02-24T16:12:40.965Z,2.50
2019-02-24T16:15:14.087Z,2.50
2019-02-24T16:17:48.250Z,2.50
2019-02-24T16:20:21.184Z,2.50
2019-02-24T16:22:54.124Z,2.50
2019-02-24T16:31:32.828Z,6.90
2019-02-24T16:34:05.885Z,4.70
2019-02-24T16:36:39.104Z,3.40
2019-02-24T16:39:13.405Z,2.90
2019-02-24T16:41:46.426Z,2.50
2019-02-24T16:44:19.501Z,2.40
2019-02-24T16:46:52.348Z,2.20
2019-02-24T16:49:25.526Z,2.10
2019-02-24T16:51:58.846Z,2.20
2019-02-24T16:54:32.385Z,2.10
2019-02-24T16:57:07.372Z,2.00
2019-02-24T16:59:39.805Z,2.00
2019-02-24T17:02:12.734Z,1.80
2019-02-24T17:04:45.911Z,1.90
2019-02-24T17:07:19.404Z,1.90
2019-02-24T17:09:52.305Z,1.90
2019-02-24T17:12:25.346Z,1.80
2019-02-24T17:14:58.906Z,1.90
2019-02-24T17:17:32.546Z,1.80
2019-02-24T17:20:05.565Z,1.90
2019-02-24T17:22:38.390Z,1.90
2019-02-24T17:25:11.511Z,1.90
2019-02-24T17:27:44.629Z,1.80
2019-02-24T17:30:17.405Z,1.70
2019-02-24T17:32:51.626Z,1.70
2019-02-24T17:35:25.445Z,1.60
2019-02-24T17:37:58.407Z,1.50
2019-02-24T17:40:31.305Z,1.40
2019-02-24T17:43:04.184Z,1.40
2019-02-24T17:45:37.165Z,1.50
2019-02-24T17:48:10.166Z,1.50
2019-02-24T17:50:43.111Z,1.40
2019-02-24T17:53:16.005Z,1.50
2019-02-24T17:55:49.326Z,1.50
2019-02-24T17:58:22.187Z,1.50
2019-02-24T18:01:02.856Z,1.50
2019-02-24T18:03:39.556Z,1.50
2019-02-24T18:06:10.424Z,1.60
2019-02-24T18:08:45.183Z,1.50
2019-02-24T18:11:18.321Z,1.40
2019-02-24T18:13:51.424Z,1.50
2019-02-24T18:16:24.603Z,1.50
2019-02-24T18:18:57.723Z,1.50
2019-02-24T18:21:31.330Z,1.50
2019-02-24T18:24:04.303Z,1.50
2019-02-24T18:26:37.183Z,1.50
2019-02-24T18:29:10.223Z,1.40
2019-02-24T18:31:44.723Z,1.40
2019-02-24T18:34:18.013Z,1.30
2019-02-24T18:36:50.928Z,1.40
2019-02-24T18:39:23.923Z,1.30
2019-02-24T18:41:56.943Z,1.40
2019-02-24T18:44:29.743Z,1.40
2019-02-24T18:47:02.526Z,1.40
2019-02-24T18:49:35.303Z,1.30
2019-02-24T18:52:08.445Z,1.20
2019-02-24T18:54:41.283Z,1.30
2019-02-24T18:57:15.904Z,1.00
2019-02-24T18:59:49.225Z,0.90
2019-02-24T19:02:23.803Z,0.90
2019-02-24T19:04:56.763Z,1.00
2019-02-24T19:07:29.963Z,1.00
2019-02-24T19:10:02.941Z,1.00
2019-02-24T19:12:35.831Z,0.80
2019-02-24T19:15:08.655Z,0.90
2019-02-24T19:17:41.743Z,1.10
2019-02-24T19:20:14.646Z,0.80
2019-02-24T19:22:47.505Z,0.80
2019-02-24T19:25:20.563Z,0.80
2019-02-24T19:27:53.583Z,0.80
2019-02-24T19:30:26.406Z,0.70
2019-02-24T19:32:59.191Z,0.70
2019-02-24T19:35:32.706Z,0.70
2019-02-24T19:38:06.385Z,0.90
2019-02-24T19:40:39.886Z,0.90
2019-02-24T19:43:12.930Z,1.10
2019-02-24T19:45:45.748Z,1.20
2019-02-24T19:48:18.628Z,1.10
2019-02-24T19:50:51.525Z,1.10
2019-02-24T19:53:25.007Z,1.00
2019-02-24T19:55:58.248Z,1.00
2019-02-24T19:58:31.410Z,1.00
2019-02-24T20:01:04.273Z,1.00
2019-02-24T20:03:37.710Z,0.90
2019-02-24T20:06:10.806Z,0.90
2019-02-24T20:08:43.885Z,1.00
2019-02-24T20:11:16.824Z,1.00
2019-02-24T20:13:49.865Z,1.00
2019-02-24T20:16:22.929Z,1.00
2019-02-24T20:18:57.108Z,1.00
2019-02-24T20:21:30.066Z,1.00
2019-02-24T20:24:06.771Z,1.10
2019-02-24T20:26:39.658Z,1.00
2019-02-24T20:29:13.030Z,1.20
2019-02-24T20:31:45.984Z,1.20
2019-02-24T20:34:25.326Z,1.20
2019-02-24T20:36:54.127Z,1.30
2019-02-24T20:39:27.589Z,1.30
2019-02-24T20:42:02.503Z,1.30
2019-02-24T20:44:35.585Z,1.30
2019-02-24T20:47:09.365Z,1.40
2019-02-24T20:49:44.006Z,1.50
2019-02-24T20:52:16.925Z,1.60
2019-02-24T20:54:50.045Z,1.60
2019-02-24T20:57:23.705Z,1.70
2019-02-24T20:59:56.887Z,1.60
2019-02-24T21:02:29.925Z,1.60
2019-02-24T21:05:03.103Z,1.60
2019-02-24T21:07:36.425Z,1.50
2019-02-24T21:10:09.445Z,1.60
2019-02-24T21:12:43.305Z,1.60
2019-02-24T21:15:16.906Z,1.80
2019-02-24T21:17:49.965Z,2.00
2019-02-24T21:20:23.207Z,2.20
2019-02-24T21:22:56.284Z,2.40
2019-02-24T21:25:29.246Z,2.50
2019-02-24T21:28:02.579Z,2.50
2019-02-24T21:30:36.448Z,2.50
2019-02-24T21:33:09.365Z,2.40
2019-02-24T21:35:42.687Z,2.40
2019-02-24T21:38:15.568Z,2.40
2019-02-24T21:40:48.650Z,2.50
2019-02-24T21:43:22.024Z,2.50
2019-02-24T21:45:55.108Z,2.50
2019-02-24T21:48:27.884Z,2.50
2019-02-24T21:51:00.965Z,2.40
2019-02-24T21:53:33.905Z,2.30
2019-02-24T21:56:07.145Z,2.20
2019-02-24T21:58:40.385Z,2.30
2019-02-24T22:01:13.425Z,2.30
2019-02-24T22:03:46.987Z,2.40
2019-02-24T22:06:19.947Z,2.50
2019-02-24T22:08:53.244Z,2.60
2019-02-24T22:11:26.185Z,2.80
2019-02-24T22:13:59.244Z,2.80
2019-02-24T22:16:32.745Z,3.00
2019-02-24T22:19:05.705Z,2.90
2019-02-24T22:21:38.685Z,3.00
2019-02-24T22:24:11.625Z,3.00
2019-02-24T22:26:45.965Z,3.00
2019-02-24T22:29:18.866Z,3.10
2019-02-24T22:31:52.064Z,3.10
2019-02-24T22:34:25.441Z,2.90
2019-02-24T22:36:58.425Z,2.80
2019-02-24T22:39:31.324Z,2.70
2019-02-24T22:42:04.886Z,2.70
2019-02-24T22:44:37.791Z,2.60
2019-02-24T22:47:11.047Z,2.40
2019-02-24T22:49:43.985Z,2.40
2019-02-24T22:52:17.065Z,2.50
2019-02-24T22:54:49.927Z,2.50
2019-02-24T22:57:22.967Z,2.70
2019-02-24T22:59:56.365Z,2.80
2019-02-24T23:02:29.225Z,2.80
2019-02-24T23:05:02.253Z,2.80
2019-02-24T23:07:35.265Z,2.80
2019-02-24T23:10:09.306Z,2.80
2019-02-24T23:12:42.345Z,2.80
2019-02-24T23:15:15.305Z,2.90
2019-02-24T23:17:48.726Z,3.00
2019-02-24T23:20:21.745Z,3.10
2019-02-24T23:22:56.743Z,3.10
2019-02-24T23:25:29.424Z,3.10
2019-02-24T23:28:02.377Z,3.10
2019-02-24T23:30:35.445Z,3.20
2019-02-24T23:33:08.889Z,3.10
2019-02-24T23:35:41.925Z,3.20
2019-02-24T23:38:15.507Z,3.30
2019-02-24T23:40:48.946Z,3.50
2019-02-24T23:43:22.025Z,3.50
2019-02-24T23:45:54.985Z,3.50
2019-02-24T23:48:27.945Z,3.30
2019-02-24T23:51:01.225Z,3.40
2019-02-24T23:53:34.185Z,3.40
2019-02-24T23:56:07.424Z,3.50
2019-02-24T23:58:40.345Z,3.40
